Villa de San Anton, Puerto Rico
Current Conditions -  °F | °C
As of 4:56 AM on Thursday 27 Nov 2014 (Local Time) from TJSJ Reporting Station
Scattered Clouds Scattered Clouds  
Wind Chill: 75°   Ceiling: Unl
Heat Index: 75°   Visibility: 10mi
Dew Point: 72°   Wind: 5mph
Humidity: 90%   Direction: 120°ESE
Pressure: 29.97"   Gusts: NA
Location:  18.4083°N, 65.981°W
Report Text: TJSJ 270856Z 12004KT 10SM SCT035 SCT045 24/22 A2997 RMK AO2 SLP149 T02390222 55003
Loading
Personal Weather Stations






























Interactive Weather Map New forecast layout! Learn more

10-Day Weather Forecast

Advertisements
Track Severe Weather on mobile